createdAt,value
2023-06-19T00:01:12.991Z,9.95
2023-06-19T00:03:40.706Z,10.40
2023-06-19T00:06:08.112Z,10.27
2023-06-19T00:08:36.696Z,9.98
2023-06-19T00:11:04.371Z,10.60
2023-06-19T00:13:31.814Z,10.57
2023-06-19T00:16:01.391Z,10.45
2023-06-19T00:18:29.558Z,10.13
2023-06-19T00:20:57.815Z,9.93
2023-06-19T00:23:25.246Z,10.35
2023-06-19T00:25:52.903Z,11.30
2023-06-19T00:28:22.555Z,9.82
2023-06-19T00:30:50.035Z,10.63
2023-06-19T00:33:17.730Z,10.18
2023-06-19T00:35:45.942Z,10.82
2023-06-19T00:38:13.340Z,11.00
2023-06-19T00:40:41.157Z,10.73
2023-06-19T00:43:10.052Z,11.18
2023-06-19T00:45:37.477Z,11.12
2023-06-19T00:48:05.444Z,10.85
2023-06-19T00:50:32.884Z,10.35
2023-06-19T00:53:00.891Z,10.70
2023-06-19T00:55:31.349Z,10.35
2023-06-19T00:57:59.311Z,10.73
2023-06-19T01:00:26.841Z,9.95
2023-06-19T01:02:54.592Z,10.05
2023-06-19T01:05:22.494Z,10.15
2023-06-19T01:08:11.087Z,10.55
2023-06-19T01:10:41.092Z,10.57
2023-06-19T01:13:13.136Z,10.30
2023-06-19T01:15:41.897Z,10.02
2023-06-19T01:18:09.431Z,9.88
2023-06-19T01:20:36.914Z,10.90
2023-06-19T01:23:10.995Z,9.50
2023-06-19T01:25:38.719Z,9.95
2023-06-19T01:28:10.649Z,9.88
2023-06-19T01:30:39.228Z,9.93
2023-06-19T01:33:15.803Z,9.70
2023-06-19T01:38:11.322Z,10.75
2023-06-19T01:40:38.754Z,10.10
2023-06-19T01:43:06.356Z,10.60
2023-06-19T01:45:34.070Z,10.23
2023-06-19T01:48:01.481Z,10.68
2023-06-19T01:50:28.976Z,9.95
2023-06-19T01:52:56.659Z,9.73
2023-06-19T01:55:24.126Z,10.35
2023-06-19T01:57:51.527Z,10.10
2023-06-19T02:00:19.574Z,10.25
2023-06-19T02:02:47.354Z,10.05
2023-06-19T02:05:14.995Z,10.32
2023-06-19T02:07:42.562Z,10.30
2023-06-19T02:10:10.507Z,10.10
2023-06-19T02:12:38.075Z,9.80
2023-06-19T02:15:06.572Z,9.45
2023-06-19T02:17:34.633Z,10.52
2023-06-19T02:20:08.827Z,9.90
2023-06-19T02:22:36.312Z,10.30
2023-06-19T02:25:04.268Z,10.73
2023-06-19T02:27:31.814Z,10.05
2023-06-19T02:30:00.246Z,10.10
2023-06-19T02:32:28.055Z,10.02
2023-06-19T02:34:56.434Z,10.13
2023-06-19T02:37:23.894Z,10.63
2023-06-19T02:39:51.588Z,9.90
2023-06-19T02:42:19.016Z,10.13
2023-06-19T02:44:46.843Z,10.52
2023-06-19T02:47:14.516Z,10.60
2023-06-19T02:49:41.947Z,10.80
2023-06-19T02:52:09.500Z,10.02
2023-06-19T02:54:37.170Z,10.65
2023-06-19T02:57:04.787Z,11.12
2023-06-19T02:59:32.232Z,10.68
2023-06-19T03:01:59.902Z,11.55
2023-06-19T03:04:29.330Z,11.73
2023-06-19T03:06:57.218Z,11.25
2023-06-19T03:09:24.980Z,10.55
2023-06-19T03:11:52.682Z,10.32
2023-06-19T03:14:20.094Z,11.77
2023-06-19T03:16:48.260Z,11.25
2023-06-19T03:19:15.947Z,11.05
2023-06-19T03:21:43.409Z,11.23
2023-06-19T03:24:12.011Z,11.75
2023-06-19T03:26:39.508Z,11.00
2023-06-19T03:29:07.533Z,10.60
2023-06-19T03:31:36.073Z,10.57
2023-06-19T03:34:03.721Z,11.18
2023-06-19T03:36:31.233Z,10.68
2023-06-19T03:39:00.600Z,10.80
2023-06-19T03:41:28.704Z,11.20
2023-06-19T03:43:56.274Z,10.93
2023-06-19T03:46:24.691Z,10.57
2023-06-19T03:48:52.882Z,10.70
2023-06-19T03:51:20.287Z,9.82
2023-06-19T03:53:48.003Z,10.93
2023-06-19T03:56:18.310Z,10.48
2023-06-19T03:58:45.742Z,10.65
2023-06-19T04:01:13.535Z,10.88
2023-06-19T04:03:42.263Z,11.38
2023-06-19T04:06:09.892Z,10.25
2023-06-19T04:08:39.979Z,11.82
2023-06-19T04:11:07.653Z,10.75
2023-06-19T04:13:35.075Z,10.57
2023-06-19T04:16:02.529Z,11.23
2023-06-19T04:18:30.306Z,11.30
2023-06-19T04:20:57.785Z,11.95
2023-06-19T04:23:25.209Z,11.30
2023-06-19T04:25:52.946Z,11.27
2023-06-19T04:28:20.385Z,10.82
2023-06-19T04:30:47.855Z,12.00
2023-06-19T04:33:15.624Z,11.77
2023-06-19T04:35:43.039Z,12.13
2023-06-19T04:38:10.677Z,12.18
2023-06-19T04:40:38.390Z,11.45
2023-06-19T04:43:07.170Z,12.25
2023-06-19T04:45:34.734Z,11.90
2023-06-19T04:48:04.506Z,11.50
2023-06-19T04:50:32.142Z,11.48
2023-06-19T04:52:59.577Z,11.85
2023-06-19T04:55:27.356Z,11.20
2023-06-19T04:57:54.729Z,11.40
2023-06-19T05:00:24.558Z,11.35
2023-06-19T05:02:52.670Z,11.60
2023-06-19T05:05:23.186Z,11.82
2023-06-19T05:07:52.446Z,11.65
2023-06-19T05:10:20.394Z,11.25
2023-06-19T05:12:47.939Z,11.55
2023-06-19T05:15:15.664Z,11.95
2023-06-19T05:17:43.189Z,12.48
2023-06-19T05:20:12.910Z,12.63
2023-06-19T05:22:40.624Z,12.32
2023-06-19T05:25:08.393Z,11.60
2023-06-19T05:27:35.791Z,11.60
2023-06-19T05:30:05.229Z,11.20
2023-06-19T05:32:32.728Z,11.50
2023-06-19T05:35:00.191Z,10.40
2023-06-19T05:37:28.395Z,11.45
2023-06-19T05:39:55.953Z,12.43
2023-06-19T05:42:23.426Z,10.10
2023-06-19T05:44:51.082Z,11.63
2023-06-19T05:47:20.620Z,11.02
2023-06-19T05:49:48.276Z,10.35
2023-06-19T05:52:15.921Z,11.12
2023-06-19T05:54:43.433Z,10.88
2023-06-19T05:57:10.846Z,11.00
2023-06-19T05:59:38.741Z,10.60
2023-06-19T06:02:07.317Z,11.50
2023-06-19T06:04:38.371Z,11.30
2023-06-19T06:07:09.208Z,12.05
2023-06-19T06:09:36.919Z,11.70
2023-06-19T06:12:05.365Z,12.10
2023-06-19T06:14:32.744Z,11.63
2023-06-19T06:17:00.664Z,11.85
2023-06-19T06:19:28.151Z,11.57
2023-06-19T06:21:55.671Z,12.18
2023-06-19T06:24:23.394Z,11.85
2023-06-19T06:26:50.844Z,11.75
2023-06-19T06:29:18.226Z,11.90
2023-06-19T06:31:47.248Z,11.88
2023-06-19T06:34:14.727Z,12.15
2023-06-19T06:36:52.826Z,11.85
2023-06-19T06:39:29.221Z,11.50
2023-06-19T06:41:56.656Z,12.15
2023-06-19T06:44:24.101Z,12.68
2023-06-19T06:46:54.778Z,12.80
2023-06-19T06:49:23.364Z,12.40
2023-06-19T06:51:50.823Z,10.55
2023-06-19T06:54:18.484Z,12.60
2023-06-19T06:56:48.951Z,11.93
2023-06-19T06:59:16.925Z,11.43
2023-06-19T07:01:44.605Z,11.20
2023-06-19T07:04:11.995Z,11.30
2023-06-19T07:06:39.410Z,10.98
2023-06-19T07:09:07.063Z,10.75
2023-06-19T07:11:34.522Z,11.02
2023-06-19T07:14:03.025Z,10.27
2023-06-19T07:16:32.850Z,11.15
2023-06-19T07:19:00.303Z,11.93
2023-06-19T07:21:28.605Z,10.77
2023-06-19T07:23:56.344Z,10.88
2023-06-19T07:26:23.983Z,11.07
2023-06-19T07:28:51.414Z,10.30
2023-06-19T07:31:19.078Z,10.93
2023-06-19T07:33:46.474Z,10.27
2023-06-19T07:36:15.250Z,11.60
2023-06-19T07:38:43.578Z,10.50
2023-06-19T07:41:12.133Z,10.80
2023-06-19T07:43:39.591Z,10.73
2023-06-19T07:46:07.339Z,10.35
2023-06-19T07:48:34.775Z,11.43
2023-06-19T07:51:02.185Z,11.20
2023-06-19T07:53:29.864Z,11.65
2023-06-19T07:55:57.264Z,11.20
2023-06-19T07:58:24.657Z,12.10
2023-06-19T08:00:52.365Z,11.48
2023-06-19T08:03:20.158Z,12.00
2023-06-19T08:05:47.724Z,11.80
2023-06-19T08:08:15.139Z,11.70
2023-06-19T08:10:42.786Z,11.85
2023-06-19T08:13:12.301Z,11.77
2023-06-19T08:15:39.785Z,11.32
2023-06-19T08:18:07.612Z,10.20
2023-06-19T08:20:35.072Z,10.70
2023-06-19T08:23:03.851Z,10.82
2023-06-19T08:25:33.500Z,11.95
2023-06-19T08:28:01.286Z,11.48
2023-06-19T08:30:29.211Z,10.40
2023-06-19T08:32:57.284Z,10.43
2023-06-19T08:35:26.808Z,11.30
2023-06-19T08:37:54.217Z,12.00
2023-06-19T08:40:22.084Z,11.00
2023-06-19T08:42:49.591Z,12.25
2023-06-19T08:45:19.728Z,11.23
2023-06-19T08:47:48.983Z,11.50
2023-06-19T08:50:17.214Z,11.23
2023-06-19T08:52:44.593Z,11.45
2023-06-19T08:55:12.668Z,10.70
2023-06-19T08:57:40.409Z,11.60
2023-06-19T09:00:09.263Z,10.32
2023-06-19T09:02:44.363Z,11.15
2023-06-19T09:05:13.532Z,12.18
2023-06-19T09:07:41.413Z,11.73
2023-06-19T09:10:19.003Z,11.70
2023-06-19T09:13:00.551Z,11.90
2023-06-19T09:15:29.306Z,11.57
2023-06-19T09:18:11.099Z,12.10
2023-06-19T09:20:41.474Z,10.80
2023-06-19T09:23:09.127Z,11.80
2023-06-19T09:25:56.474Z,11.38
2023-06-19T09:28:28.327Z,12.75
2023-06-19T09:30:57.447Z,13.23
2023-06-19T09:33:29.557Z,12.05
2023-06-19T09:35:57.848Z,12.15
2023-06-19T09:38:30.177Z,11.88
2023-06-19T09:40:59.480Z,11.68
2023-06-19T09:43:50.456Z,12.35
2023-06-19T09:46:18.375Z,11.80
2023-06-19T09:48:47.474Z,12.80
2023-06-19T09:51:23.511Z,12.80
2023-06-19T09:53:52.698Z,11.55
2023-06-19T09:56:23.603Z,12.05
2023-06-19T09:58:52.576Z,11.77
2023-06-19T10:01:20.225Z,11.60
2023-06-19T10:03:47.915Z,12.32
2023-06-19T10:06:17.024Z,11.40
2023-06-19T10:08:46.719Z,12.15
2023-06-19T10:11:14.510Z,11.75
2023-06-19T10:13:42.556Z,12.10
2023-06-19T10:16:23.263Z,11.35
2023-06-19T10:18:51.358Z,11.90
2023-06-19T10:21:22.465Z,12.15
2023-06-19T10:23:57.111Z,11.18
2023-06-19T10:26:32.790Z,11.32
2023-06-19T10:29:00.460Z,11.63
2023-06-19T10:31:29.877Z,11.73
2023-06-19T10:33:57.455Z,11.27
2023-06-19T10:36:26.927Z,11.55
2023-06-19T10:38:55.399Z,11.12
2023-06-19T10:41:24.253Z,11.57
2023-06-19T10:43:59.412Z,11.85
2023-06-19T10:46:33.622Z,11.30
2023-06-19T10:49:05.906Z,11.12
2023-06-19T10:51:40.771Z,10.32
2023-06-19T10:54:08.727Z,12.20
2023-06-19T10:56:36.470Z,11.63
2023-06-19T10:59:10.928Z,12.18
2023-06-19T11:01:39.144Z,12.93
2023-06-19T11:04:07.608Z,12.43
2023-06-19T11:06:38.253Z,13.82
2023-06-19T11:09:09.573Z,13.18
2023-06-19T11:11:47.728Z,13.43
2023-06-19T11:14:16.617Z,14.48
2023-06-19T11:16:46.399Z,14.02
2023-06-19T11:19:21.271Z,13.82
2023-06-19T11:21:50.212Z,14.38
2023-06-19T11:24:17.757Z,15.18
2023-06-19T11:26:52.383Z,14.38
2023-06-19T11:31:51.801Z,14.60
2023-06-19T11:34:21.090Z,14.57
2023-06-19T11:36:51.496Z,14.77
2023-06-19T11:39:19.276Z,14.57
2023-06-19T11:41:46.738Z,14.50
2023-06-19T11:44:14.563Z,15.52
2023-06-19T11:46:43.225Z,15.40
2023-06-19T11:49:14.825Z,15.00
2023-06-19T11:51:42.665Z,13.70
2023-06-19T11:54:11.516Z,14.93
2023-06-19T11:56:39.458Z,14.25
2023-06-19T11:59:07.236Z,14.23
2023-06-19T12:01:35.351Z,14.48
2023-06-19T12:04:03.674Z,14.20
2023-06-19T12:06:31.258Z,14.23
2023-06-19T12:08:58.726Z,14.18
2023-06-19T12:11:26.447Z,14.25
2023-06-19T12:13:58.784Z,14.98
2023-06-19T12:16:26.857Z,14.23
2023-06-19T12:18:54.539Z,14.68
2023-06-19T12:21:33.847Z,14.18
2023-06-19T12:24:04.115Z,13.85
2023-06-19T12:26:31.592Z,14.20
2023-06-19T12:28:59.048Z,14.45
2023-06-19T12:31:26.839Z,13.60
2023-06-19T12:33:54.353Z,12.75
2023-06-19T12:36:21.782Z,13.82
2023-06-19T12:38:50.130Z,14.60
2023-06-19T12:41:17.510Z,13.57
2023-06-19T12:43:44.938Z,14.10
2023-06-19T12:46:12.903Z,14.05
2023-06-19T12:48:40.309Z,14.15
2023-06-19T12:51:07.716Z,14.40
2023-06-19T12:53:35.340Z,13.80
2023-06-19T12:56:05.956Z,13.60
2023-06-19T12:58:36.872Z,13.62
2023-06-19T13:01:04.295Z,14.57
2023-06-19T13:03:31.831Z,13.65
2023-06-19T13:05:59.596Z,14.38
2023-06-19T13:08:27.039Z,14.30
2023-06-19T13:10:54.419Z,13.95
2023-06-19T13:13:22.132Z,13.05
2023-06-19T13:15:49.631Z,13.98
2023-06-19T13:18:18.656Z,13.82
2023-06-19T13:20:49.021Z,14.52
2023-06-19T13:23:16.424Z,13.82
2023-06-19T13:25:43.863Z,14.02
2023-06-19T13:28:11.540Z,13.43
2023-06-19T13:30:39.157Z,13.38
2023-06-19T13:33:06.611Z,11.82
2023-06-19T13:35:34.734Z,12.07
2023-06-19T13:38:02.217Z,12.27
2023-06-19T13:40:29.647Z,12.70
2023-06-19T13:42:57.297Z,12.48
2023-06-19T13:45:24.797Z,13.00
2023-06-19T13:47:52.384Z,12.95
2023-06-19T13:50:20.121Z,12.93
2023-06-19T13:52:47.556Z,12.20
2023-06-19T13:55:18.306Z,12.93
2023-06-19T13:57:45.987Z,13.45
2023-06-19T14:00:14.052Z,13.23
2023-06-19T14:02:42.112Z,12.37
2023-06-19T14:05:10.024Z,12.60
2023-06-19T14:07:37.473Z,13.43
2023-06-19T14:10:06.021Z,13.07
2023-06-19T14:12:33.457Z,12.63
2023-06-19T14:15:00.997Z,12.88
2023-06-19T14:17:29.514Z,12.48
2023-06-19T14:19:58.120Z,12.45
2023-06-19T14:22:25.564Z,12.55
2023-06-19T14:25:00.360Z,13.15
2023-06-19T14:27:27.864Z,12.13
2023-06-19T14:29:55.946Z,12.82
2023-06-19T14:32:24.579Z,13.00
2023-06-19T14:34:52.101Z,12.75
2023-06-19T14:37:19.822Z,13.25
2023-06-19T14:39:47.264Z,13.68
2023-06-19T14:42:14.788Z,12.82
2023-06-19T14:44:42.458Z,14.48
2023-06-19T14:47:09.971Z,13.48
2023-06-19T14:49:37.614Z,12.95
2023-06-19T14:52:06.454Z,11.82
2023-06-19T14:54:33.854Z,12.20
2023-06-19T14:57:01.300Z,12.98
2023-06-19T14:59:29.003Z,12.57
2023-06-19T15:01:56.408Z,13.55
2023-06-19T15:04:24.280Z,13.15
2023-06-19T15:06:51.984Z,12.68
2023-06-19T15:09:19.461Z,12.70
2023-06-19T15:11:46.891Z,12.30
2023-06-19T15:14:14.549Z,14.27
2023-06-19T15:16:41.977Z,12.85
2023-06-19T15:19:09.492Z,11.77
2023-06-19T15:21:37.173Z,12.23
2023-06-19T15:24:04.655Z,13.57
2023-06-19T15:26:32.236Z,12.70
2023-06-19T15:28:59.889Z,13.43
2023-06-19T15:31:27.255Z,12.48
2023-06-19T15:33:54.768Z,12.48
2023-06-19T15:36:22.479Z,14.52
2023-06-19T15:38:49.989Z,12.80
2023-06-19T15:41:17.349Z,12.85
2023-06-19T15:43:45.282Z,12.90
2023-06-19T15:46:15.122Z,12.98
2023-06-19T15:48:43.220Z,12.40
2023-06-19T15:51:11.418Z,12.60
2023-06-19T15:53:39.386Z,12.60
2023-06-19T15:56:06.963Z,13.23
2023-06-19T15:58:34.777Z,13.13
2023-06-19T16:01:02.201Z,13.18
2023-06-19T16:03:32.851Z,13.20
2023-06-19T16:06:07.214Z,13.25
2023-06-19T16:08:36.451Z,13.62
2023-06-19T16:11:05.715Z,13.40
2023-06-19T16:13:33.648Z,12.93
2023-06-19T16:16:01.371Z,12.52
2023-06-19T16:18:28.885Z,12.60
2023-06-19T16:20:56.290Z,12.70
2023-06-19T16:23:23.989Z,13.62
2023-06-19T16:25:51.351Z,12.50
2023-06-19T16:28:18.767Z,12.93
2023-06-19T16:30:46.464Z,12.75
2023-06-19T16:33:13.917Z,13.48
2023-06-19T16:35:41.377Z,12.70
2023-06-19T16:38:08.990Z,13.05
2023-06-19T16:40:36.431Z,12.60
2023-06-19T16:43:03.804Z,12.73
2023-06-19T16:45:31.477Z,12.32
2023-06-19T16:47:59.123Z,13.88
2023-06-19T16:50:27.450Z,13.27
2023-06-19T16:52:55.399Z,12.68
2023-06-19T16:55:23.857Z,12.37
2023-06-19T16:57:51.248Z,12.60
2023-06-19T17:00:19.889Z,12.80
2023-06-19T17:02:48.549Z,12.70
2023-06-19T17:05:16.040Z,13.18
2023-06-19T17:07:43.747Z,12.65
2023-06-19T17:10:13.582Z,13.07
2023-06-19T17:12:41.019Z,12.13
2023-06-19T17:15:09.160Z,13.35
2023-06-19T17:17:36.798Z,12.55
2023-06-19T17:20:05.955Z,12.70
2023-06-19T17:22:33.720Z,12.40
2023-06-19T17:25:01.076Z,12.45
2023-06-19T17:27:28.503Z,12.85
2023-06-19T17:29:56.141Z,12.18
2023-06-19T17:32:23.618Z,12.40
2023-06-19T17:34:51.011Z,12.65
2023-06-19T17:37:18.830Z,12.07
2023-06-19T17:39:46.194Z,12.32
2023-06-19T17:42:13.565Z,11.60
2023-06-19T17:44:41.221Z,13.43
2023-06-19T17:47:08.706Z,12.65
2023-06-19T17:49:36.127Z,12.75
2023-06-19T17:52:03.983Z,11.68
2023-06-19T17:54:31.517Z,13.07
2023-06-19T17:56:58.908Z,12.85
2023-06-19T17:59:26.585Z,14.52
2023-06-19T18:01:54.025Z,12.95
2023-06-19T18:04:21.664Z,12.80
2023-06-19T18:06:49.121Z,13.07
2023-06-19T18:09:16.567Z,12.52
2023-06-19T18:11:44.197Z,12.45
2023-06-19T18:14:11.597Z,13.02
2023-06-19T18:16:39.074Z,11.93
2023-06-19T18:19:06.790Z,12.27
2023-06-19T18:21:34.244Z,12.32
2023-06-19T18:24:04.922Z,12.05
2023-06-19T18:26:33.094Z,13.27
2023-06-19T18:29:01.157Z,12.80
2023-06-19T18:31:28.577Z,13.05
2023-06-19T18:33:56.809Z,12.52
2023-06-19T18:36:25.343Z,13.43
2023-06-19T18:38:52.798Z,12.20
2023-06-19T18:41:20.506Z,12.73
2023-06-19T18:43:47.918Z,12.75
2023-06-19T18:46:15.390Z,11.52
2023-06-19T18:48:43.747Z,13.25
2023-06-19T18:51:11.268Z,12.80
2023-06-19T18:53:38.724Z,11.85
2023-06-19T18:56:06.502Z,13.27
2023-06-19T18:58:33.967Z,12.52
2023-06-19T19:01:03.141Z,13.15
2023-06-19T19:03:33.856Z,13.60
2023-06-19T19:06:01.408Z,12.60
2023-06-19T19:08:28.779Z,12.50
2023-06-19T19:10:57.266Z,12.15
2023-06-19T19:13:24.747Z,13.15
2023-06-19T19:15:52.203Z,12.68
2023-06-19T19:18:19.856Z,12.02
2023-06-19T19:20:47.399Z,13.52
2023-06-19T19:23:14.847Z,12.15
2023-06-19T19:25:42.513Z,12.37
2023-06-19T19:28:14.794Z,13.10
2023-06-19T19:30:42.855Z,12.73
2023-06-19T19:33:10.461Z,12.90
2023-06-19T19:35:38.007Z,13.60
2023-06-19T19:38:05.659Z,12.98
2023-06-19T19:40:33.040Z,12.98
2023-06-19T19:43:01.602Z,13.00
2023-06-19T19:45:29.286Z,13.95
2023-06-19T19:47:56.792Z,13.07
2023-06-19T19:50:24.347Z,12.50
2023-06-19T19:52:52.265Z,13.98
2023-06-19T19:55:19.735Z,13.43
2023-06-19T19:57:47.143Z,13.48
2023-06-19T20:00:15.436Z,12.82
2023-06-19T20:02:43.491Z,12.50
2023-06-19T20:05:10.932Z,13.20
2023-06-19T20:07:38.407Z,12.65
2023-06-19T20:10:06.920Z,13.50
2023-06-19T20:12:34.329Z,13.05
2023-06-19T20:15:02.896Z,13.38
2023-06-19T20:17:32.109Z,13.25
2023-06-19T20:19:59.520Z,13.98
2023-06-19T20:22:26.904Z,12.95
2023-06-19T20:24:54.592Z,13.50
2023-06-19T20:27:22.890Z,14.07
2023-06-19T20:29:50.272Z,13.05
2023-06-19T20:32:17.958Z,13.30
2023-06-19T20:34:45.450Z,13.45
2023-06-19T20:37:12.937Z,13.00
2023-06-19T20:39:40.807Z,13.50
2023-06-19T20:42:08.531Z,14.18
2023-06-19T20:44:37.561Z,13.82
2023-06-19T20:47:05.834Z,14.00
2023-06-19T20:49:33.206Z,13.85
2023-06-19T20:52:00.612Z,13.32
2023-06-19T20:54:28.289Z,13.75
2023-06-19T20:56:55.681Z,12.57
2023-06-19T20:59:23.117Z,12.90
2023-06-19T21:01:50.876Z,12.57
2023-06-19T21:04:18.355Z,13.85
2023-06-19T21:06:46.012Z,13.82
2023-06-19T21:09:15.350Z,13.73
2023-06-19T21:11:44.324Z,14.05
2023-06-19T21:14:11.756Z,13.20
2023-06-19T21:16:39.512Z,13.18
2023-06-19T21:19:06.966Z,13.02
2023-06-19T21:21:34.348Z,13.07
2023-06-19T21:24:02.059Z,13.20
2023-06-19T21:26:29.495Z,13.57
2023-06-19T21:28:56.919Z,13.70
2023-06-19T21:31:24.604Z,12.50
2023-06-19T21:33:52.050Z,12.68
2023-06-19T21:36:19.540Z,13.45
2023-06-19T21:38:47.287Z,12.48
2023-06-19T21:41:14.686Z,12.20
2023-06-19T21:43:42.101Z,12.35
2023-06-19T21:46:09.739Z,12.68
2023-06-19T21:48:37.254Z,12.55
2023-06-19T21:51:04.631Z,12.32
2023-06-19T21:53:32.302Z,11.85
2023-06-19T21:55:59.917Z,13.18
2023-06-19T21:58:27.422Z,12.40
2023-06-19T22:00:55.081Z,12.63
2023-06-19T22:03:22.834Z,11.95
2023-06-19T22:05:50.332Z,12.43
2023-06-19T22:08:22.359Z,12.20
2023-06-19T22:10:55.108Z,12.27
2023-06-19T22:13:22.464Z,13.10
2023-06-19T22:15:49.888Z,12.82
2023-06-19T22:18:19.268Z,11.82
2023-06-19T22:20:46.694Z,12.68
2023-06-19T22:23:14.070Z,12.35
2023-06-19T22:25:42.216Z,12.32
2023-06-19T22:28:09.585Z,12.25
2023-06-19T22:30:37.020Z,11.85
2023-06-19T22:33:06.895Z,12.05
2023-06-19T22:35:34.378Z,11.80
2023-06-19T22:38:01.757Z,12.15
2023-06-19T22:40:29.715Z,11.70
2023-06-19T22:42:57.112Z,11.73
2023-06-19T22:45:25.088Z,12.00
2023-06-19T22:47:53.038Z,11.15
2023-06-19T22:50:20.479Z,11.05
2023-06-19T22:52:47.892Z,10.57
2023-06-19T22:55:15.535Z,11.98
2023-06-19T22:57:42.914Z,11.73
2023-06-19T23:00:13.780Z,11.15
2023-06-19T23:02:45.445Z,11.38
2023-06-19T23:05:13.612Z,11.43
2023-06-19T23:07:42.093Z,11.48
2023-06-19T23:10:09.875Z,11.25
2023-06-19T23:12:37.514Z,11.40
2023-06-19T23:15:07.719Z,11.80
2023-06-19T23:17:35.600Z,11.07
2023-06-19T23:20:03.809Z,11.50
2023-06-19T23:22:31.505Z,11.45
2023-06-19T23:25:01.544Z,12.05
2023-06-19T23:27:29.140Z,11.27
2023-06-19T23:29:56.780Z,11.38
2023-06-19T23:32:24.184Z,11.43
2023-06-19T23:34:51.710Z,11.82
2023-06-19T23:37:19.374Z,11.52
2023-06-19T23:39:46.741Z,11.38
2023-06-19T23:42:14.186Z,12.35
2023-06-19T23:44:41.910Z,11.30
2023-06-19T23:47:09.516Z,11.73
2023-06-19T23:49:39.239Z,12.37
2023-06-19T23:52:07.000Z,12.32
2023-06-19T23:54:34.455Z,11.50
2023-06-19T23:57:01.829Z,11.90
2023-06-19T23:59:29.527Z,10.93
